sensor_id;sensor_type;location;lat;lon;timestamp;pressure;altitude;pressure_sealevel;temperature;humidity
43838;BME280;65998;46.256;7.534;2022-12-17T06:45:13;86809.66;;;-1.47;100.00
43838;BME280;65998;46.256;7.534;2022-12-17T06:59:28;86813.44;;;-1.06;100.00
43838;BME280;65998;46.256;7.534;2022-12-17T07:02:38;86825.06;;;-1.02;100.00
43838;BME280;65998;46.256;7.534;2022-12-17T07:05:38;86824.84;;;-0.84;100.00
43838;BME280;65998;46.256;7.534;2022-12-17T07:14:28;86828.00;;;-1.41;100.00
43838;BME280;65998;46.256;7.534;2022-12-17T07:17:58;86824.13;;;-1.10;100.00
43838;BME280;65998;46.256;7.534;2022-12-17T07:24:38;86843.22;;;-0.78;100.00
43838;BME280;65998;46.256;7.534;2022-12-17T07:33:47;86855.34;;;-1.27;100.00
43838;BME280;65998;46.256;7.534;2022-12-17T07:36:54;86863.09;;;-1.15;100.00
43838;BME280;65998;46.256;7.534;2022-12-17T07:42:26;86864.59;;;-1.34;100.00
43838;BME280;65998;46.256;7.534;2022-12-17T07:48:57;86870.31;;;-1.46;100.00
43838;BME280;65998;46.256;7.534;2022-12-17T07:52:18;86878.53;;;-1.18;100.00
43838;BME280;65998;46.256;7.534;2022-12-17T08:01:55;86906.66;;;-1.01;100.00
43838;BME280;65998;46.256;7.534;2022-12-17T08:08:13;86911.00;;;-1.14;100.00
43838;BME280;65998;46.256;7.534;2022-12-17T08:11:01;86920.78;;;-1.03;100.00
43838;BME280;65998;46.256;7.534;2022-12-17T08:14:32;86924.31;;;-0.96;100.00
43838;BME280;65998;46.256;7.534;2022-12-17T08:17:48;86945.44;;;-0.65;100.00
43838;BME280;65998;46.256;7.534;2022-12-17T08:20:36;86959.94;;;-0.52;100.00
43838;BME280;65998;46.256;7.534;2022-12-17T08:23:33;86950.22;;;-0.37;100.00
43838;BME280;65998;46.256;7.534;2022-12-17T08:26:33;86961.59;;;-0.15;100.00
43838;BME280;65998;46.256;7.534;2022-12-17T08:29:35;86974.41;;;-0.41;100.00
43838;BME280;65998;46.256;7.534;2022-12-17T08:32:33;86972.41;;;-0.65;100.00
43838;BME280;65998;46.256;7.534;2022-12-17T08:36:07;86980.16;;;-0.53;100.00
43838;BME280;65998;46.256;7.534;2022-12-17T08:39:07;86994.22;;;-0.07;100.00
43838;BME280;65998;46.256;7.534;2022-12-17T08:41:56;86993.38;;;-0.13;100.00
43838;BME280;65998;46.256;7.534;2022-12-17T08:44:47;87006.72;;;-0.19;100.00
43838;BME280;65998;46.256;7.534;2022-12-17T08:48:22;87001.09;;;-0.02;100.00
43838;BME280;65998;46.256;7.534;2022-12-17T08:51:27;87002.28;;;-0.09;100.00
43838;BME280;65998;46.256;7.534;2022-12-17T08:55:03;87009.41;;;-0.19;100.00
43838;BME280;65998;46.256;7.534;2022-12-17T08:58:17;87018.25;;;-0.17;100.00
43838;BME280;65998;46.256;7.534;2022-12-17T09:05:21;87022.19;;;-0.46;100.00
43838;BME280;65998;46.256;7.534;2022-12-17T09:08:30;87024.38;;;-0.64;100.00
43838;BME280;65998;46.256;7.534;2022-12-17T09:11:36;87028.41;;;-0.65;100.00
43838;BME280;65998;46.256;7.534;2022-12-17T09:14:33;87039.34;;;-0.83;100.00
43838;BME280;65998;46.256;7.534;2022-12-17T09:17:49;87041.03;;;-0.72;100.00
43838;BME280;65998;46.256;7.534;2022-12-17T09:20:33;87034.88;;;-0.50;100.00
43838;BME280;65998;46.256;7.534;2022-12-17T09:23:18;87046.81;;;-0.34;100.00
43838;BME280;65998;46.256;7.534;2022-12-17T09:26:03;87039.91;;;-0.15;100.00
43838;BME280;65998;46.256;7.534;2022-12-17T09:28:48;87029.94;;;-0.34;100.00
43838;BME280;65998;46.256;7.534;2022-12-17T09:31:35;87039.41;;;-0.33;100.00
43838;BME280;65998;46.256;7.534;2022-12-17T09:34:20;87047.97;;;0.07;100.00
43838;BME280;65998;46.256;7.534;2022-12-17T09:37:04;87050.56;;;0.29;100.00
43838;BME280;65998;46.256;7.534;2022-12-17T09:40:15;87044.72;;;0.13;100.00
43838;BME280;65998;46.256;7.534;2022-12-17T09:43:39;87041.59;;;-0.27;100.00
43838;BME280;65998;46.256;7.534;2022-12-17T09:46:58;87048.34;;;-0.03;100.00
43838;BME280;65998;46.256;7.534;2022-12-17T09:49:48;87064.16;;;0.07;100.00
43838;BME280;65998;46.256;7.534;2022-12-17T09:52:40;87057.97;;;0.03;100.00
43838;BME280;65998;46.256;7.534;2022-12-17T09:55:29;87061.41;;;0.05;100.00
43838;BME280;65998;46.256;7.534;2022-12-17T09:58:25;87050.66;;;-0.17;100.00
43838;BME280;65998;46.256;7.534;2022-12-17T10:15:15;87054.97;;;0.16;100.00
43838;BME280;65998;46.256;7.534;2022-12-17T10:18:09;87053.09;;;0.23;100.00
43838;BME280;65998;46.256;7.534;2022-12-17T10:21:14;87053.09;;;0.49;100.00
43838;BME280;65998;46.256;7.534;2022-12-17T10:24:09;87055.13;;;0.76;100.00
43838;BME280;65998;46.256;7.534;2022-12-17T10:26:55;87045.28;;;0.89;100.00
43838;BME280;65998;46.256;7.534;2022-12-17T10:30:11;87054.78;;;0.36;100.00
43838;BME280;65998;46.256;7.534;2022-12-17T10:33:03;87048.91;;;0.18;100.00
43838;BME280;65998;46.256;7.534;2022-12-17T10:36:43;87065.72;;;0.14;100.00
43838;BME280;65998;46.256;7.534;2022-12-17T10:40:29;87059.69;;;0.70;100.00
43838;BME280;65998;46.256;7.534;2022-12-17T10:43:37;87062.53;;;0.22;100.00
43838;BME280;65998;46.256;7.534;2022-12-17T10:47:00;87061.75;;;-0.30;100.00
43838;BME280;65998;46.256;7.534;2022-12-17T11:02:08;87057.72;;;-0.77;100.00
43838;BME280;65998;46.256;7.534;2022-12-17T11:39:39;87054.22;;;0.40;100.00
43838;BME280;65998;46.256;7.534;2022-12-17T12:06:22;87045.25;;;0.87;100.00
43838;BME280;65998;46.256;7.534;2022-12-17T12:13:30;87054.72;;;0.60;100.00
43838;BME280;65998;46.256;7.534;2022-12-17T12:17:21;87040.50;;;0.59;100.00
43838;BME280;65998;46.256;7.534;2022-12-17T12:34:01;87055.38;;;0.86;100.00
43838;BME280;65998;46.256;7.534;2022-12-17T12:37:43;87059.09;;;0.73;100.00
43838;BME280;65998;46.256;7.534;2022-12-17T12:41:15;87047.50;;;0.69;100.00
43838;BME280;65998;46.256;7.534;2022-12-17T12:51:53;87055.00;;;0.44;100.00
43838;BME280;65998;46.256;7.534;2022-12-17T13:22:51;87076.19;;;0.54;100.00
43838;BME280;65998;46.256;7.534;2022-12-17T13:25:33;87065.22;;;0.48;100.00
43838;BME280;65998;46.256;7.534;2022-12-17T13:28:26;87074.38;;;0.62;100.00
43838;BME280;65998;46.256;7.534;2022-12-17T13:31:03;87062.53;;;0.22;100.00
43838;BME280;65998;46.256;7.534;2022-12-17T13:33:55;87076.03;;;0.48;100.00
43838;BME280;65998;46.256;7.534;2022-12-17T13:41:52;87080.50;;;0.37;100.00
43838;BME280;65998;46.256;7.534;2022-12-17T13:44:33;87084.78;;;0.46;100.00
43838;BME280;65998;46.256;7.534;2022-12-17T13:47:03;87095.19;;;0.56;100.00
43838;BME280;65998;46.256;7.534;2022-12-17T13:49:30;87103.34;;;0.58;100.00
43838;BME280;65998;46.256;7.534;2022-12-17T13:52:13;87101.22;;;0.54;100.00
43838;BME280;65998;46.256;7.534;2022-12-17T13:54:41;87114.47;;;0.44;100.00
43838;BME280;65998;46.256;7.534;2022-12-17T13:57:26;87106.22;;;0.38;100.00
43838;BME280;65998;46.256;7.534;2022-12-17T14:00:18;87106.31;;;0.42;100.00
43838;BME280;65998;46.256;7.534;2022-12-17T14:05:52;87101.50;;;0.39;100.00
43838;BME280;65998;46.256;7.534;2022-12-17T14:08:30;87106.72;;;0.32;100.00
43838;BME280;65998;46.256;7.534;2022-12-17T14:10:57;87104.97;;;0.17;100.00
43838;BME280;65998;46.256;7.534;2022-12-17T14:13:45;87114.47;;;0.18;100.00
43838;BME280;65998;46.256;7.534;2022-12-17T14:16:16;87104.81;;;0.11;100.00
43838;BME280;65998;46.256;7.534;2022-12-17T14:18:58;87112.13;;;0.07;100.00
43838;BME280;65998;46.256;7.534;2022-12-17T14:21:56;87116.16;;;-0.16;100.00
43838;BME280;65998;46.256;7.534;2022-12-17T14:24:44;87112.13;;;-0.39;100.00
43838;BME280;65998;46.256;7.534;2022-12-17T14:34:54;87126.84;;;-0.66;100.00
43838;BME280;65998;46.256;7.534;2022-12-17T14:37:23;87131.00;;;-0.63;100.00
43838;BME280;65998;46.256;7.534;2022-12-17T15:08:20;87163.00;;;-0.75;100.00
43838;BME280;65998;46.256;7.534;2022-12-17T15:11:32;87178.50;;;-0.76;100.00
43838;BME280;65998;46.256;7.534;2022-12-17T15:13:58;87173.28;;;-0.91;100.00
43838;BME280;65998;46.256;7.534;2022-12-17T15:16:34;87178.13;;;-0.88;100.00
43838;BME280;65998;46.256;7.534;2022-12-17T15:19:00;87180.63;;;-0.94;100.00
43838;BME280;65998;46.256;7.534;2022-12-17T15:21:27;87175.00;;;-0.80;100.00
43838;BME280;65998;46.256;7.534;2022-12-17T15:23:56;87170.53;;;-0.72;100.00
43838;BME280;65998;46.256;7.534;2022-12-17T15:26:30;87173.06;;;-0.56;100.00
